Wednesday, March 04, 2015
16:46 UTC
  |  Log In   |  Register Free
Airport Search:

Yellowstone Regional Airport
(KCOD)

Yellowstone Regional Airport Diagram
No Airport Diagram Available

FAA data valid effective January 08, 2015 - March 05, 2015 (unless otherwise noted).

 
 
 
 
 
 
 
 
 
 
 
 
 
 

Current Aviation Weather for Yellowstone Regional Airport (KCOD)

The most recent METAR observation for KCOD was updated at: 1607
METAR Summary (Translated METAR)
KCOD
041555Z 00000KT 10SM CLR M13/M17 A3012 RMK AO1
KPOY
041555Z AUTO 15005KT 10SM CLR M11/M21 A3010 RMK AO2
(23.1 nm NE from KCOD)
KU68
041555Z AUTO 10004KT 10SM BKN060 BKN070 M12/M17 A3021 RMK AO2
(34.1 nm NE from KCOD)
TAF Summary (Translated TAF)
KCOD
041123Z 0412/0512 19005KT P6SM SKC FM041700 15006KT P6SM SKC FM050200 25013G25KT P6SM BKN200 AMD LTD TO CLD VIS AND WIND
  Airport Weather Conditions for KCOD

 Current Weather at COD
9° F
Fair
North winds at 0.0 mph
COD NOAA Radar

Pressure: 30.12 in
Humidity: 72%
Wind: Calm
Dew Point: 1.4°F
Visibility: 10.00 mi


Airport Weather Forecast for KCOD

Translated METAR and TAF for KCOD
Translated METAR for KCOD (1646 UTC 04 March 2015)
found at http://aviationweather.gov/adds/metars/
 
METAR text: KCOD 041635Z 13006KT 10SM CLR M12/M17 A3012 RMK AO1
Conditions at: KCOD (CODY , WY, US) observed 1635 UTC 04 March 2015
Temperature: -12.0°C (10°F)
Dewpoint: -17.0°C (1°F) [RH = 66%]
Pressure (altimeter): 30.12 inches Hg (1020.1 mb)
Winds: from the SE (130 degrees) at 7 MPH (6 knots; 3.1 m/s)
Visibility: 10 or more miles (16+ km)
Ceiling: at least 12,000 feet AGL
Clouds: sky clear below 12,000 feet AGL
Weather: no significant weather observed at this time
Translated TAF for KCOD
Forecast for: KCOD (CODY , WY, US)
TAF Text: KCOD 041123Z 0412/0512 19005KT P6SM SKC
Forecast period: 1200 to 1700 UTC 04 March 2015
Forecast type: FROM: standard forecast or significant change
Winds: from the S (190 degrees) at 6 MPH (5 knots; 2.6 m/s)
Visibility: 6 or more miles (10+ km)
Clouds: clear skies
Weather: no significant weather forecast for this period
TAF Text: FM041700 15006KT P6SM SKC
Forecast period: 1700 UTC 04 March 2015 to 0200 UTC 05 March 2015
Forecast type: FROM: standard forecast or significant change
Winds: from the SSE (150 degrees) at 7 MPH (6 knots; 3.1 m/s)
Visibility: 6 or more miles (10+ km)
Clouds: clear skies
Weather: no significant weather forecast for this period
TAF Text: FM050200 25013G25KT P6SM BKN200 AMD LTD TO CLD VIS AND WIND
Forecast period: 0200 to 1200 UTC 05 March 2015
Forecast type: FROM: standard forecast or significant change
Winds: from the WSW (250 degrees) at 15 MPH (13 knots; 6.8 m/s)
gusting to 29 MPH (25 knots; 13.0 m/s)
Visibility: 6 or more miles (10+ km)
Ceiling: 20000 feet AGL
Clouds: broken clouds at 20000 feet AGL
Weather: no significant weather forecast for this period

Find All Airport Services Find A Hotel Find A Rental Car Find A Golf Course Find A Restaurant $100 Hamburger



FBO's on the Field
FBO Company Facility Photos Services Transportation Aviation Fuel Prices: Prices include tax
Catering Weather Repair Courtesy Rental Type 100LL JetA JetA+ MOGAS 8087
 
Choice Aviation, LLC

This FBO has not yet been rated
FS:Avfuel
Last Updated: Feb-25
Login to update fuel prices
SS:
Contact Choice Aviation, LLCMore FBO Information
 
Add another FBO Facility Photos Catering Weather Repair Courtesy Rental Type 100LL JetA JetA+ MOGAS 8087
Services Transportation Aviation Fuel Prices: Prices include tax


model-print
model-print
model-print
model-print